Mobridge Municipal Airport

Current Flights

Departures
Number Departure To Airline
Arrivals
Number Arrival From Airline
Info
Name: Mobridge Municipal Airport
Identifier:  MBG/KMBG
Local Time:  26. Jun 23:55
City
Flights per Day
0 flights
Distance: 129km (80mi)
Punctuality
0% (0 flights per day delayed)
Delay Average: 69 minutes
Current Weather
 23 C (Humidity: 68%)
  11kt (20km/h / 12mph) from 80°
  16km (10 mi.)
 
 METAR KMBG 270352Z AUTO 08011KT 10SM CLR 23/17 A2994 RMK AO2 SLP127 T02330172 $

Current Delays

Departures
N/A
Arrivals
N/A

Destinations

Top Destinations
Airport Flights
per week
Seats
per week
  Pierre (PIR) 0 - 0 0

Airlines & Planes

Top Airlines
Airline Flights
per Day
Seats
per Day
Alpine Air Express 0 -
Top Plane Types
Model Flights Seats
Beech C-99 Airliner 0.0/day - 0